Map

Track Data

SID SEASON NUMBER BASIN SUBBASIN NAME ISO_TIME NATURE LAT LON WMO_WIND WMO_PRES WMO_AGENCY TRACK_TYPE DIST2LAND LANDFALL IFLAG USA_AGENCY USA_ATCF_ID USA_LAT USA_LON USA_RECORD USA_STATUS USA_WIND USA_PRES USA_SSHS USA_R34_NE USA_R34_SE USA_R34_SW USA_R34_NW USA_R50_NE USA_R50_SE USA_R50_SW USA_R50_NW USA_R64_NE USA_R64_SE USA_R64_SW USA_R64_NW USA_POCI USA_ROCI USA_RMW USA_EYE TOKYO_LAT TOKYO_LON TOKYO_GRADE TOKYO_WIND TOKYO_PRES TOKYO_R50_DIR TOKYO_R50_LONG TOKYO_R50_SHORT TOKYO_R30_DIR TOKYO_R30_LONG TOKYO_R30_SHORT TOKYO_LAND CMA_LAT CMA_LON CMA_CAT CMA_WIND CMA_PRES HKO_LAT HKO_LON HKO_CAT HKO_WIND HKO_PRES NEWDELHI_LAT NEWDELHI_LON NEWDELHI_GRADE NEWDELHI_WIND NEWDELHI_PRES NEWDELHI_CI NEWDELHI_DP NEWDELHI_POCI REUNION_LAT REUNION_LON REUNION_TYPE REUNION_WIND REUNION_PRES REUNION_TNUM REUNION_CI REUNION_RMW REUNION_R34_NE REUNION_R34_SE REUNION_R34_SW REUNION_R34_NW REUNION_R50_NE REUNION_R50_SE REUNION_R50_SW REUNION_R50_NW REUNION_R64_NE REUNION_R64_SE REUNION_R64_SW REUNION_R64_NW BOM_LAT BOM_LON BOM_TYPE BOM_WIND BOM_PRES BOM_TNUM BOM_CI BOM_RMW BOM_R34_NE BOM_R34_SE BOM_R34_SW BOM_R34_NW BOM_R50_NE BOM_R50_SE BOM_R50_SW BOM_R50_NW BOM_R64_NE BOM_R64_SE BOM_R64_SW BOM_R64_NW BOM_ROCI BOM_POCI BOM_EYE BOM_POS_METHOD BOM_PRES_METHOD NADI_LAT NADI_LON NADI_CAT NADI_WIND NADI_PRES WELLINGTON_LAT WELLINGTON_LON WELLINGTON_WIND WELLINGTON_PRES DS824_LAT DS824_LON DS824_STAGE DS824_WIND DS824_PRES TD9636_LAT TD9636_LON TD9636_STAGE TD9636_WIND TD9636_PRES TD9635_LAT TD9635_LON TD9635_WIND TD9635_PRES TD9635_ROCI NEUMANN_LAT NEUMANN_LON NEUMANN_CLASS NEUMANN_WIND NEUMANN_PRES MLC_LAT MLC_LON MLC_CLASS MLC_WIND MLC_PRES USA_GUST BOM_GUST BOM_GUST_PER REUNION_GUST REUNION_GUST_PER USA_SEAHGT USA_SEARAD_NE USA_SEARAD_SE USA_SEARAD_SW USA_SEARAD_NW STORM_SPEED STORM_DIR
1930171N17069 1930 25 NI AS NOT_NAMED 1930-06-20 00:00:00 TS 17.0000 69.4000 main 394 390 _________O____ -1 17.0000 69.4000 TC 30 4 341
1930171N17069 1930 25 NI AS NOT_NAMED 1930-06-20 03:00:00 TS 17.1717 69.3417 main 397 391 _________PO___ -1 17.2575 69.3125 TC 30 17.0000 69.4000 1 4 338
1930171N17069 1930 25 NI AS NOT_NAMED 1930-06-20 06:00:00 TS 17.3988 69.2289 main 401 390 _________OP___ -1 17.5000 69.2000 TC 30 17.2470 69.2722 1 5 332
1930171N17069 1930 25 NI AS NOT_NAMED 1930-06-20 09:00:00 TS 17.6165 69.0909 main 390 375 _________PP___ -1 17.7150 69.0500 TC 30 17.4851 69.1454 1 5 328
1930171N17069 1930 25 NI AS NOT_NAMED 1930-06-20 12:00:00 TS 17.8028 68.9604 main 375 361 _________OP___ -1 17.9000 68.9000 TC 30 17.7057 69.0209 1 4 327
1930171N17069 1930 25 NI AS NOT_NAMED 1930-06-20 15:00:00 TS 17.9787 68.8500 main 367 358 _________PO___ -1 18.0575 68.7999 TC 30 17.9000 68.9000 1 4 328
1930171N17069 1930 25 NI AS NOT_NAMED 1930-06-20 18:00:00 TS 18.1317 68.7414 main 364 352 _________OP___ -1 18.2000 68.7000 TC 30 18.0634 68.7829 1 4 323
1930171N17069 1930 25 NI AS NOT_NAMED 1930-06-20 21:00:00 TS 18.2749 68.6111 main 352 349 _________PP___ -1 18.3425 68.5575 TC 30 18.2074 68.6647 1 4 318
1930171N17069 1930 25 NI AS NOT_NAMED 1930-06-21 00:00:00 TS 18.4239 68.4696 main 349 337 _________OP___ -1 18.5000 68.4000 TC 30 18.3477 68.5391 1 4 320
1930171N17069 1930 25 NI AS NOT_NAMED 1930-06-21 03:00:00 TS 18.5962 68.3287 main 343 331 _________PO___ -1 18.6925 68.2575 TC 30 18.5000 68.4000 1 5 322
1930171N17069 1930 25 NI AS NOT_NAMED 1930-06-21 06:00:00 TS 18.7948 68.1697 main 331 328 _________OP___ -1 18.9000 68.1000 TC 30 18.6897 68.2394 1 5 321
1930171N17069 1930 25 NI AS NOT_NAMED 1930-06-21 09:00:00 TS 19.0000 67.9863 main 328 328 _________PP___ -1 19.1075 67.9075 TC 30 18.8925 68.0651 1 5 318
1930171N17069 1930 25 NI AS NOT_NAMED 1930-06-21 12:00:00 TS 19.1995 67.7916 main 328 327 _________OP___ -1 19.3000 67.7000 TC 30 19.0991 67.8831 1 5 315
1930171N17069 1930 25 NI AS NOT_NAMED 1930-06-21 15:00:00 TS 19.3750 67.5962 main 327 327 _________PO___ -1 19.4500 67.4924 TC 30 19.3000 67.7000 1 5 314
1930171N17069 1930 25 NI AS NOT_NAMED 1930-06-21 18:00:00 TS 19.5349 67.4184 main 335 327 _________OP___ -1 19.6000 67.3000 TC 30 19.4699 67.5368 1 5 317
1930171N17069 1930 25 NI AS NOT_NAMED 1930-06-21 21:00:00 TS 19.7099 67.2647 main 327 326 _________PP___ -1 19.7849 67.1574 TC 30 19.6348 67.3719 1 5 321
1930171N17069 1930 25 NI AS NOT_NAMED 1930-06-22 00:00:00 TS 19.9037 67.0981 main 326 321 _________OP___ -1 20.0000 67.0000 TC 30 19.8073 67.1961 1 5 319
1930171N17069 1930 25 NI AS NOT_NAMED 1930-06-22 03:00:00 TS 20.1213 66.8825 main 321 311 _________PO___ -1 20.2425 66.7650 TC 30 20.0000 67.0000 1 6 317
1930171N17069 1930 25 NI AS NOT_NAMED 1930-06-22 06:00:00 TS 20.3662 66.6378 main 319 319 _________OP___ -1 20.5000 66.5000 TC 30 20.2325 66.7757 1 7 317
1930171N17069 1930 25 NI AS NOT_NAMED 1930-06-22 09:00:00 TS 20.6175 66.3900 main 320 320 _________PP___ -1 20.7500 66.2499 TC 30 20.4850 66.5301 1 7 317
1930171N17069 1930 25 NI AS NOT_NAMED 1930-06-22 12:00:00 TS 20.8725 66.1347 main 329 329 _________OP___ -1 21.0000 66.0000 TC 30 20.7450 66.2694 1 7 317
1930171N17069 1930 25 NI AS NOT_NAMED 1930-06-22 15:00:00 TS 21.1287 65.8787 main 337 333 _________PO___ -1 21.2574 65.7574 TC 30 21.0000 66.0000 1 7 315
1930171N17069 1930 25 NI AS NOT_NAMED 1930-06-22 18:00:00 TS 21.3517 65.6299 main 337 333 _________OP___ -1 21.5000 65.5000 TC 30 21.2405 65.7274 1 7 312
1930171N17069 1930 25 NI AS NOT_NAMED 1930-06-22 21:00:00 TS 21.5647 65.3558 main 333 333 _________PP___ -1 21.7101 65.2102 TC 30 21.4678 65.4530 1 7 309
1930171N17069 1930 25 NI AS NOT_NAMED 1930-06-23 00:00:00 TS 21.7575 65.0847 main 339 339 _________OP___ -1 21.9000 64.9000 TC 30 21.6862 65.1771 1 5 308
1930171N17069 1930 25 NI AS NOT_NAMED 1930-06-23 03:00:00 NR 21.9000 64.9000 main 347 __________O___ -1 TC 21.9000 64.9000 1 4 310

About IBTrACS Database

This database is a web-friendly format of International Best Track Archive for Climate Stewardship (IBTrACS), a global best track data archive curated by NOAA dating back to 1842.

Updated: 2021-12-08